createdAt,value
2023-03-03T00:02:30.294Z,0.90
2023-03-03T00:07:32.061Z,1.00
2023-03-03T00:12:48.493Z,0.90
2023-03-03T00:17:50.704Z,0.80
2023-03-03T00:22:52.474Z,0.90
2023-03-03T00:27:54.463Z,0.90
2023-03-03T00:32:56.516Z,0.90
2023-03-03T00:38:01.698Z,0.90
2023-03-03T00:43:20.603Z,0.80
2023-03-03T00:48:28.388Z,0.70
2023-03-03T00:53:30.964Z,0.70
2023-03-03T00:58:32.702Z,0.70
2023-03-03T01:03:34.406Z,0.80
2023-03-03T01:08:36.167Z,0.70
2023-03-03T01:13:40.536Z,0.90
2023-03-03T01:18:42.436Z,0.80
2023-03-03T01:23:44.181Z,0.80
2023-03-03T01:28:45.887Z,0.90
2023-03-03T01:33:47.564Z,0.80
2023-03-03T01:38:49.249Z,0.60
2023-03-03T01:43:51.203Z,0.80
2023-03-03T01:49:03.031Z,0.80
2023-03-03T01:54:12.356Z,0.80
2023-03-03T01:59:23.370Z,0.90
2023-03-03T02:04:26.508Z,0.80
2023-03-03T02:09:50.052Z,0.60
2023-03-03T02:14:51.750Z,0.80
2023-03-03T02:20:15.494Z,0.70
2023-03-03T02:25:26.849Z,0.90
2023-03-03T02:30:28.702Z,1.00
2023-03-03T02:35:39.774Z,0.80
2023-03-03T02:40:53.186Z,0.60
2023-03-03T02:45:54.976Z,0.70
2023-03-03T02:50:56.839Z,0.70
2023-03-03T02:55:58.669Z,0.70
2023-03-03T03:01:00.373Z,0.70
2023-03-03T03:06:02.459Z,0.80
2023-03-03T03:11:05.868Z,0.90
2023-03-03T03:16:08.038Z,0.60
2023-03-03T03:21:11.750Z,0.60
2023-03-03T03:26:13.517Z,0.60
2023-03-03T03:31:16.515Z,0.60
2023-03-03T03:36:18.307Z,0.40
2023-03-03T03:41:20.053Z,0.30
2023-03-03T03:46:21.870Z,0.40
2023-03-03T03:51:23.628Z,0.30
2023-03-03T03:56:25.325Z,0.40
2023-03-03T04:01:27.053Z,0.50
2023-03-03T04:06:28.837Z,0.40
2023-03-03T04:11:30.902Z,0.40
2023-03-03T04:16:32.684Z,0.40
2023-03-03T04:21:34.520Z,0.40
2023-03-03T04:26:36.202Z,0.60
2023-03-03T04:31:37.873Z,0.80
2023-03-03T04:36:39.613Z,0.80
2023-03-03T04:41:41.482Z,0.70
2023-03-03T04:46:43.266Z,0.80
2023-03-03T04:51:45.028Z,0.70
2023-03-03T04:56:46.785Z,0.90
2023-03-03T05:01:51.026Z,0.90
2023-03-03T05:06:52.795Z,0.80
2023-03-03T05:11:54.532Z,0.50
2023-03-03T05:16:56.278Z,0.50
2023-03-03T05:21:58.798Z,0.70
2023-03-03T05:27:00.681Z,0.50
2023-03-03T05:32:02.393Z,0.50
2023-03-03T05:37:06.615Z,0.60
2023-03-03T05:42:09.826Z,0.60
2023-03-03T05:47:11.722Z,0.80
2023-03-03T05:52:14.398Z,1.00
2023-03-03T05:57:16.398Z,0.80
2023-03-03T06:02:18.183Z,0.80
2023-03-03T06:07:19.856Z,0.90
2023-03-03T06:12:22.497Z,0.80
2023-03-03T06:17:24.434Z,0.60
2023-03-03T06:22:26.278Z,0.50
2023-03-03T06:27:27.995Z,0.40
2023-03-03T06:32:29.778Z,0.60
2023-03-03T06:37:31.548Z,0.70
2023-03-03T06:42:33.246Z,0.90
2023-03-03T06:47:34.999Z,1.00
2023-03-03T06:52:36.707Z,1.00
2023-03-03T06:57:38.495Z,1.20
2023-03-03T07:02:40.402Z,1.20
2023-03-03T07:07:42.379Z,1.30
2023-03-03T07:12:44.135Z,1.00
2023-03-03T07:17:50.888Z,1.20
2023-03-03T07:22:53.612Z,1.00
2023-03-03T07:28:07.408Z,1.00
2023-03-03T07:33:37.880Z,1.10
2023-03-03T07:38:51.848Z,1.20
2023-03-03T07:43:55.098Z,1.10
2023-03-03T07:48:58.715Z,1.10
2023-03-03T07:54:28.603Z,1.00
2023-03-03T07:59:30.539Z,1.10
2023-03-03T08:04:42.036Z,1.30
2023-03-03T08:09:47.965Z,1.30
2023-03-03T08:14:52.534Z,1.40
2023-03-03T08:19:56.099Z,1.80
2023-03-03T08:24:57.779Z,1.70
2023-03-03T08:29:59.420Z,1.50
2023-03-03T08:35:01.111Z,2.10
2023-03-03T08:40:02.932Z,2.60
2023-03-03T08:45:04.975Z,2.80
2023-03-03T08:50:07.144Z,2.70
2023-03-03T08:55:09.830Z,2.80
2023-03-03T09:00:15.476Z,2.70
2023-03-03T09:05:18.810Z,2.10
2023-03-03T09:10:27.349Z,2.40
2023-03-03T09:15:31.941Z,2.70
2023-03-03T09:20:41.126Z,2.30
2023-03-03T09:25:43.007Z,2.10
2023-03-03T09:30:48.977Z,2.30
2023-03-03T09:35:53.940Z,2.40
2023-03-03T09:41:18.401Z,2.20
2023-03-03T09:46:30.986Z,2.10
2023-03-03T09:51:47.882Z,2.10
2023-03-03T09:57:05.487Z,2.20
2023-03-03T10:02:25.326Z,2.40
2023-03-03T10:07:37.050Z,2.70
2023-03-03T10:12:54.993Z,2.80
2023-03-03T10:18:46.011Z,2.90
2023-03-03T10:24:06.610Z,3.00
2023-03-03T10:30:04.090Z,2.80
2023-03-03T10:35:05.850Z,2.50
2023-03-03T10:40:36.111Z,2.70
2023-03-03T10:45:50.143Z,2.70
2023-03-03T10:50:54.762Z,3.30
2023-03-03T10:56:26.078Z,3.60
2023-03-03T11:01:39.674Z,3.00
2023-03-03T11:06:53.490Z,3.00
2023-03-03T11:12:14.141Z,3.50
2023-03-03T11:17:30.936Z,3.00
2023-03-03T11:22:34.931Z,2.80
2023-03-03T11:27:59.372Z,3.20
2023-03-03T11:33:11.428Z,3.30
2023-03-03T11:38:18.913Z,3.30
2023-03-03T11:43:38.282Z,3.30
2023-03-03T11:49:06.691Z,3.60
2023-03-03T11:54:14.201Z,3.50
2023-03-03T11:59:32.624Z,3.90
2023-03-03T12:04:39.339Z,3.70
2023-03-03T12:10:02.571Z,3.20
2023-03-03T12:15:30.546Z,3.50
2023-03-03T12:21:04.126Z,4.00
2023-03-03T12:26:43.175Z,4.20
2023-03-03T12:32:07.771Z,4.60
2023-03-03T12:37:26.906Z,4.40
2023-03-03T12:42:49.729Z,4.00
2023-03-03T12:47:59.988Z,3.80
2023-03-03T12:53:09.825Z,4.20
2023-03-03T12:58:56.730Z,4.30
2023-03-03T13:04:22.819Z,3.80
2023-03-03T13:09:53.902Z,3.50
2023-03-03T13:15:16.210Z,4.10
2023-03-03T13:20:23.098Z,4.60
2023-03-03T13:25:44.381Z,4.40
2023-03-03T13:30:55.164Z,4.50
2023-03-03T13:36:10.468Z,4.30
2023-03-03T13:41:32.263Z,4.40
2023-03-03T13:46:37.343Z,4.20
2023-03-03T13:52:02.284Z,4.10
2023-03-03T13:57:38.393Z,4.20
2023-03-03T14:02:58.988Z,3.80
2023-03-03T14:08:17.037Z,4.00
2023-03-03T14:13:35.596Z,4.40
2023-03-03T14:19:02.549Z,4.50
2023-03-03T14:24:15.207Z,4.40
2023-03-03T14:29:28.825Z,4.60
2023-03-03T14:34:38.377Z,4.70
2023-03-03T14:39:40.819Z,4.60
2023-03-03T14:44:55.963Z,4.50
2023-03-03T14:50:00.249Z,4.50
2023-03-03T14:55:31.652Z,4.60
2023-03-03T15:00:36.455Z,4.60
2023-03-03T15:05:49.661Z,4.70
2023-03-03T15:10:51.465Z,4.70
2023-03-03T15:15:59.137Z,4.40
2023-03-03T15:21:18.765Z,4.50
2023-03-03T15:26:39.520Z,4.60
2023-03-03T15:31:53.797Z,4.80
2023-03-03T15:37:13.968Z,4.60
2023-03-03T15:42:29.638Z,4.60
2023-03-03T15:47:50.942Z,4.50
2023-03-03T15:52:58.408Z,4.40
2023-03-03T15:58:18.117Z,4.10
2023-03-03T16:03:28.045Z,4.20
2023-03-03T16:08:59.066Z,4.20
2023-03-03T16:14:39.655Z,4.20
2023-03-03T16:20:07.429Z,4.00
2023-03-03T16:25:21.109Z,4.20
2023-03-03T16:30:36.262Z,4.20
2023-03-03T16:35:55.702Z,4.10
2023-03-03T16:41:00.077Z,4.10
2023-03-03T16:46:27.479Z,4.00
2023-03-03T16:51:45.100Z,3.90
2023-03-03T16:57:10.968Z,4.00
2023-03-03T17:02:34.562Z,4.00
2023-03-03T17:08:15.628Z,3.90
2023-03-03T17:13:48.460Z,3.90
2023-03-03T17:18:57.200Z,3.90
2023-03-03T17:24:23.622Z,3.90
2023-03-03T17:29:39.814Z,3.60
2023-03-03T17:34:44.351Z,3.70
2023-03-03T17:40:05.709Z,3.90
2023-03-03T17:45:14.124Z,3.90
2023-03-03T17:50:24.574Z,3.80
2023-03-03T17:55:40.770Z,3.70
2023-03-03T18:00:45.243Z,3.80
2023-03-03T18:06:12.057Z,3.80
2023-03-03T18:11:22.615Z,3.80
2023-03-03T18:16:51.231Z,3.80
2023-03-03T18:22:07.572Z,4.00
2023-03-03T18:27:24.581Z,4.00
2023-03-03T18:32:40.168Z,4.00
2023-03-03T18:37:44.986Z,4.00
2023-03-03T18:42:49.761Z,3.90
2023-03-03T18:48:00.652Z,3.80
2023-03-03T18:53:29.778Z,3.90
2023-03-03T18:58:44.584Z,3.90
2023-03-03T19:03:48.905Z,3.90
2023-03-03T19:08:57.877Z,3.90
2023-03-03T19:14:38.545Z,3.90
2023-03-03T19:20:01.325Z,3.90
2023-03-03T19:25:08.955Z,3.80
2023-03-03T19:30:20.919Z,3.90
2023-03-03T19:35:45.402Z,3.90
2023-03-03T19:41:11.565Z,3.90
2023-03-03T19:46:54.978Z,3.90
2023-03-03T19:52:05.098Z,3.80
2023-03-03T19:57:19.542Z,3.70
2023-03-03T20:03:00.175Z,3.70
2023-03-03T20:08:18.295Z,3.60
2023-03-03T20:13:44.183Z,3.60
2023-03-03T20:19:07.046Z,3.60
2023-03-03T20:24:36.818Z,3.50
2023-03-03T20:29:57.332Z,3.50
2023-03-03T20:34:58.994Z,3.60
2023-03-03T20:40:14.525Z,3.50
2023-03-03T20:45:19.023Z,3.50
2023-03-03T20:50:30.499Z,3.40
2023-03-03T20:56:14.462Z,3.40
2023-03-03T21:01:42.245Z,3.40
2023-03-03T21:06:44.675Z,3.40
2023-03-03T21:11:47.701Z,3.50
2023-03-03T21:16:51.316Z,3.40
2023-03-03T21:21:53.764Z,3.40
2023-03-03T21:26:56.999Z,3.50
2023-03-03T21:32:00.952Z,3.30
2023-03-03T21:37:07.833Z,3.20
2023-03-03T21:42:12.394Z,3.10
2023-03-03T21:47:24.332Z,3.00
2023-03-03T21:52:26.192Z,3.00
2023-03-03T21:57:28.046Z,2.90
2023-03-03T22:02:29.922Z,2.80
2023-03-03T22:07:31.663Z,2.80
2023-03-03T22:12:33.452Z,2.80
2023-03-03T22:17:35.225Z,2.90
2023-03-03T22:22:36.986Z,2.80
2023-03-03T22:27:38.740Z,2.70
2023-03-03T22:32:40.688Z,2.70
2023-03-03T22:37:42.480Z,2.80
2023-03-03T22:42:44.161Z,2.80
2023-03-03T22:47:46.155Z,2.80
2023-03-03T22:52:47.824Z,2.80
2023-03-03T22:57:49.735Z,2.80
2023-03-03T23:02:51.629Z,2.80
2023-03-03T23:07:53.388Z,2.80
2023-03-03T23:12:55.282Z,2.80
2023-03-03T23:17:57.102Z,2.80
2023-03-03T23:22:59.435Z,2.80
2023-03-03T23:28:01.088Z,2.90
2023-03-03T23:33:02.864Z,2.90
2023-03-03T23:38:04.583Z,2.80
2023-03-03T23:43:06.280Z,2.90
2023-03-03T23:48:08.048Z,2.90
2023-03-03T23:53:09.780Z,2.90
2023-03-03T23:58:12.212Z,2.90
